Time;durP1;ratioP1;P1;durP2;ratioP2;P2;SDS_P1;SDS_P2;PMS_P1;PMS_P2;Temp;Humidity;BMP_temperature;BMP_pressure;BME280_temperature;BME280_humidity;BME280_pressure;Samples;Min_cycle;Max_cycle;Signal;HPM_P1;HPM_P2
2021/05/30 00:00:29;;;;;;;4.80;2.00;;;;;;;;;;4898906;29;20032;-61
2021/05/30 00:02:55;;;;;;;3.20;1.83;;;;;;;;;;4898717;29;20031;-72
2021/05/30 00:05:22;;;;;;;4.03;2.00;;;;;;;;;;4898633;29;20032;-75
2021/05/30 00:07:48;;;;;;;4.32;2.35;;;;;;;;;;4897212;29;20459;-62
2021/05/30 00:10:14;;;;;;;2.95;1.83;;;;;;;;;;4898510;29;20366;-71
2021/05/30 00:12:40;;;;;;;4.05;2.13;;;;;;;;;;4898747;29;20051;-61
2021/05/30 00:15:09;;;;;;;4.10;2.13;;;;;;;;;;4898616;29;20075;-61
2021/05/30 00:17:35;;;;;;;4.75;1.98;;;;;;;;;;4898535;29;20024;-69
2021/05/30 00:20:02;;;;;;;3.53;2.10;;;;;;;;;;4898534;29;20021;-69
2021/05/30 00:22:28;;;;;;;5.82;2.20;;;;;;;;;;4898374;29;20096;-67
2021/05/30 00:24:54;;;;;;;3.38;2.10;;;;;;;;;;4890503;29;20450;-74
2021/05/30 00:27:20;;;;;;;6.25;2.08;;;;;;;;;;4879128;29;20029;-60
2021/05/30 00:29:46;;;;;;;2.85;1.85;;;;;;;;;;4879184;29;20021;-71
2021/05/30 00:32:12;;;;;;;3.90;2.05;;;;;;;;;;4879481;29;20068;-75
2021/05/30 00:34:38;;;;;;;4.88;2.15;;;;;;;;;;4879341;29;20033;-72
2021/05/30 00:37:04;;;;;;;2.80;2.15;;;;;;;;;;4879448;29;20104;-73
2021/05/30 00:39:30;;;;;;;4.03;2.10;;;;;;;;;;4879190;29;20033;-69
2021/05/30 00:41:56;;;;;;;2.97;1.88;;;;;;;;;;4879339;29;20021;-69
2021/05/30 00:44:22;;;;;;;3.97;2.20;;;;;;;;;;4879241;29;20116;-75
2021/05/30 00:46:49;;;;;;;3.67;2.00;;;;;;;;;;4879382;29;20474;-71
2021/05/30 00:49:15;;;;;;;4.13;1.80;;;;;;;;;;4879138;29;20032;-68
2021/05/30 00:51:41;;;;;;;3.45;1.98;;;;;;;;;;4878967;29;20418;-73
2021/05/30 00:54:07;;;;;;;4.10;1.75;;;;;;;;;;4878732;29;20033;-69
2021/05/30 00:56:34;;;;;;;3.22;2.10;;;;;;;;;;4879292;29;20037;-74
2021/05/30 00:59:00;;;;;;;4.65;1.65;;;;;;;;;;4879005;29;20036;-75
2021/05/30 01:01:26;;;;;;;2.45;1.80;;;;;;;;;;4879255;29;20032;-76
2021/05/30 01:03:52;;;;;;;3.72;2.00;;;;;;;;;;4878954;29;20029;-61
2021/05/30 01:06:18;;;;;;;5.32;2.00;;;;;;;;;;4879149;29;20029;-61
2021/05/30 01:08:46;;;;;;;4.45;2.15;;;;;;;;;;4878851;29;20028;-70
2021/05/30 01:11:16;;;;;;;2.75;2.00;;;;;;;;;;4878921;29;20053;-75
2021/05/30 01:13:42;;;;;;;3.10;2.10;;;;;;;;;;4878937;29;20400;-73
2021/05/30 01:16:09;;;;;;;2.65;1.80;;;;;;;;;;4862162;29;20462;-75
2021/05/30 01:18:37;;;;;;;4.47;2.15;;;;;;;;;;4878911;29;20100;-73
2021/05/30 01:21:03;;;;;;;3.42;1.90;;;;;;;;;;4878827;29;20021;-72
2021/05/30 01:23:29;;;;;;;2.55;1.95;;;;;;;;;;4878518;29;20516;-67
2021/05/30 01:25:55;;;;;;;5.28;2.20;;;;;;;;;;4878162;29;20060;-66
2021/05/30 01:28:21;;;;;;;5.90;2.17;;;;;;;;;;4878484;29;20037;-71
2021/05/30 01:30:48;;;;;;;2.40;2.08;;;;;;;;;;4878277;29;20041;-72
2021/05/30 01:33:14;;;;;;;5.05;2.20;;;;;;;;;;4878496;29;20025;-64
2021/05/30 01:35:40;;;;;;;3.67;2.00;;;;;;;;;;4878468;29;20270;-74
2021/05/30 01:38:07;;;;;;;4.85;2.20;;;;;;;;;;4878432;29;20445;-75
2021/05/30 01:40:33;;;;;;;2.88;2.28;;;;;;;;;;4878480;29;20029;-75
2021/05/30 01:42:59;;;;;;;4.47;1.80;;;;;;;;;;4878818;29;20052;-76
2021/05/30 01:45:30;;;;;;;3.55;2.13;;;;;;;;;;4878245;29;20084;-60
2021/05/30 01:47:56;;;;;;;3.30;1.90;;;;;;;;;;4878381;29;20502;-63
2021/05/30 01:50:23;;;;;;;5.18;2.20;;;;;;;;;;4878589;29;20025;-64
2021/05/30 01:52:50;;;;;;;2.72;2.10;;;;;;;;;;4878040;29;20474;-75
2021/05/30 01:56:55;;;;;;;4.60;2.10;;;;;;;;;;4877728;29;20048;-61
2021/05/30 01:58:10;;;;;;;2.63;1.92;;;;;;;;;;4874666;29;20052;-74
2021/05/30 02:00:36;;;;;;;3.00;2.05;;;;;;;;;;4878056;29;20029;-74
2021/05/30 02:03:02;;;;;;;8.93;2.60;;;;;;;;;;4876896;29;20025;-61
2021/05/30 02:05:28;;;;;;;3.13;2.25;;;;;;;;;;4875657;29;20029;-63
2021/05/30 02:07:54;;;;;;;3.05;2.38;;;;;;;;;;4871992;29;20026;-61
2021/05/30 02:10:22;;;;;;;3.63;2.35;;;;;;;;;;4870521;29;20091;-63
2021/05/30 02:12:50;;;;;;;3.65;2.47;;;;;;;;;;4877388;29;20085;-62
2021/05/30 02:15:16;;;;;;;4.72;2.42;;;;;;;;;;4877816;29;20516;-75
2021/05/30 02:17:42;;;;;;;3.55;2.53;;;;;;;;;;4877837;29;20026;-61
2021/05/30 02:20:09;;;;;;;4.35;2.30;;;;;;;;;;4877765;29;20033;-61
2021/05/30 02:22:36;;;;;;;3.05;2.33;;;;;;;;;;4877777;29;20077;-74
2021/05/30 02:25:02;;;;;;;5.05;2.60;;;;;;;;;;4868654;29;20057;-73
2021/05/30 02:27:29;;;;;;;3.58;2.35;;;;;;;;;;4896386;29;20036;-60
2021/05/30 02:29:55;;;;;;;4.45;2.40;;;;;;;;;;4896019;29;20037;-74
2021/05/30 02:32:21;;;;;;;3.33;2.42;;;;;;;;;;4896509;29;20036;-74
2021/05/30 02:34:47;;;;;;;3.78;2.33;;;;;;;;;;4896272;29;20069;-72
2021/05/30 02:37:14;;;;;;;3.80;2.25;;;;;;;;;;4896276;29;20024;-64
2021/05/30 02:39:41;;;;;;;4.45;2.58;;;;;;;;;;4896082;29;20083;-75
2021/05/30 02:42:07;;;;;;;4.35;2.40;;;;;;;;;;4896143;29;20029;-68
2021/05/30 02:44:33;;;;;;;5.43;2.60;;;;;;;;;;4895953;29;20037;-70
2021/05/30 02:46:59;;;;;;;4.50;2.40;;;;;;;;;;4896600;29;20491;-60
2021/05/30 02:49:26;;;;;;;3.78;2.10;;;;;;;;;;4896574;29;20107;-74
2021/05/30 02:51:52;;;;;;;5.30;2.40;;;;;;;;;;4896653;29;20027;-71
2021/05/30 02:54:18;;;;;;;4.25;2.55;;;;;;;;;;4896087;29;20036;-63
2021/05/30 02:56:44;;;;;;;4.60;2.53;;;;;;;;;;4896367;29;20157;-73
2021/05/30 02:59:10;;;;;;;4.05;2.40;;;;;;;;;;4896468;29;20039;-69
2021/05/30 03:01:37;;;;;;;4.57;2.35;;;;;;;;;;4896788;29;20033;-73
2021/05/30 03:04:03;;;;;;;3.10;2.10;;;;;;;;;;4878635;29;20416;-62
2021/05/30 03:06:29;;;;;;;3.63;2.40;;;;;;;;;;4896005;29;20393;-74
2021/05/30 03:08:55;;;;;;;4.45;2.30;;;;;;;;;;4895891;29;20040;-73
2021/05/30 03:11:22;;;;;;;3.88;2.13;;;;;;;;;;4895765;29;20627;-69
2021/05/30 03:13:48;;;;;;;3.75;2.20;;;;;;;;;;4895947;29;20132;-65
2021/05/30 03:16:14;;;;;;;3.83;1.88;;;;;;;;;;4895902;29;20028;-66
2021/05/30 03:18:40;;;;;;;4.57;2.22;;;;;;;;;;4895873;29;20564;-69
2021/05/30 03:21:06;;;;;;;5.32;2.60;;;;;;;;;;4895724;29;20028;-73
2021/05/30 03:23:32;;;;;;;4.63;2.00;;;;;;;;;;4895568;29;20111;-69
2021/05/30 03:25:59;;;;;;;2.88;1.90;;;;;;;;;;4880378;29;20049;-68
2021/05/30 03:28:25;;;;;;;5.60;2.05;;;;;;;;;;4877241;29;20120;-69
2021/05/30 03:30:51;;;;;;;3.90;2.08;;;;;;;;;;4860321;29;20084;-64
2021/05/30 03:33:17;;;;;;;4.47;2.38;;;;;;;;;;4876993;29;20037;-64
2021/05/30 03:35:45;;;;;;;4.20;2.30;;;;;;;;;;4877297;29;20089;-69
2021/05/30 03:38:12;;;;;;;3.90;2.03;;;;;;;;;;4876782;29;20032;-69
2021/05/30 03:40:46;;;;;;;4.15;2.10;;;;;;;;;;4860159;29;20465;-72
2021/05/30 03:43:13;;;;;;;3.33;1.77;;;;;;;;;;4880426;29;20033;-63
2021/05/30 03:45:39;;;;;;;2.67;1.67;;;;;;;;;;4863810;29;20474;-67
2021/05/30 03:48:06;;;;;;;3.72;2.05;;;;;;;;;;4880525;29;20041;-68
2021/05/30 03:50:32;;;;;;;5.78;2.25;;;;;;;;;;4863418;29;20065;-66
2021/05/30 03:52:58;;;;;;;6.50;1.75;;;;;;;;;;4880153;29;20037;-61
2021/05/30 03:55:24;;;;;;;5.38;1.83;;;;;;;;;;4880378;29;20041;-67
2021/05/30 03:57:50;;;;;;;3.53;1.75;;;;;;;;;;4880291;29;20608;-68
2021/05/30 04:00:18;;;;;;;3.17;1.98;;;;;;;;;;4880045;29;20036;-61
2021/05/30 04:02:45;;;;;;;3.47;1.98;;;;;;;;;;4880287;29;20505;-64
2021/05/30 04:05:11;;;;;;;3.40;2.00;;;;;;;;;;4880238;29;20068;-61
2021/05/30 04:07:37;;;;;;;2.70;1.83;;;;;;;;;;4880073;29;20029;-73
2021/05/30 04:10:09;;;;;;;3.53;1.77;;;;;;;;;;4879925;29;20029;-68
2021/05/30 04:12:35;;;;;;;2.70;1.70;;;;;;;;;;4880021;29;20464;-70
2021/05/30 04:15:01;;;;;;;2.65;1.75;;;;;;;;;;4879564;29;20507;-66
2021/05/30 04:17:27;;;;;;;3.53;1.70;;;;;;;;;;4878960;29;20025;-66
2021/05/30 04:19:53;;;;;;;5.75;1.80;;;;;;;;;;4879014;29;20032;-68
2021/05/30 04:22:20;;;;;;;2.45;1.65;;;;;;;;;;4879320;29;20033;-67
2021/05/30 04:24:46;;;;;;;3.30;2.00;;;;;;;;;;4879460;29;20045;-64
2021/05/30 04:27:12;;;;;;;3.88;1.85;;;;;;;;;;4879606;29;20033;-70
2021/05/30 04:29:38;;;;;;;4.82;2.10;;;;;;;;;;4879900;29;20390;-68
2021/05/30 04:32:04;;;;;;;5.38;1.70;;;;;;;;;;4879348;29;20476;-65
2021/05/30 04:34:30;;;;;;;2.83;1.70;;;;;;;;;;4879351;29;20114;-67
2021/05/30 04:36:56;;;;;;;2.97;1.90;;;;;;;;;;4879655;29;20474;-69
2021/05/30 04:39:23;;;;;;;4.68;1.73;;;;;;;;;;4879468;29;20041;-65
2021/05/30 04:41:49;;;;;;;3.58;1.60;;;;;;;;;;4879444;29;20025;-71
2021/05/30 04:44:15;;;;;;;3.13;1.88;;;;;;;;;;4879584;29;20029;-70
2021/05/30 04:46:41;;;;;;;5.07;1.77;;;;;;;;;;4879707;29;20030;-66
2021/05/30 04:49:07;;;;;;;4.78;2.05;;;;;;;;;;4879331;29;20163;-75
2021/05/30 04:51:33;;;;;;;4.30;1.70;;;;;;;;;;4879627;29;20077;-73
2021/05/30 04:53:59;;;;;;;2.60;1.80;;;;;;;;;;4878734;29;20069;-72
2021/05/30 04:56:25;;;;;;;3.50;1.67;;;;;;;;;;4879148;29;20032;-70
2021/05/30 04:58:52;;;;;;;4.15;1.70;;;;;;;;;;4879110;29;20037;-71
2021/05/30 05:01:18;;;;;;;4.53;1.83;;;;;;;;;;4878985;29;20110;-72
2021/05/30 05:03:44;;;;;;;4.47;1.85;;;;;;;;;;4878998;29;20033;-60
2021/05/30 05:06:11;;;;;;;5.57;1.98;;;;;;;;;;4879034;29;20065;-71
2021/05/30 05:08:37;;;;;;;3.78;1.90;;;;;;;;;;4879002;29;20037;-60
2021/05/30 05:11:04;;;;;;;3.40;1.70;;;;;;;;;;4878712;29;20486;-60
2021/05/30 05:13:30;;;;;;;3.38;1.70;;;;;;;;;;4878748;29;20041;-72
2021/05/30 05:15:56;;;;;;;2.38;1.60;;;;;;;;;;4879062;29;20029;-60
2021/05/30 05:18:23;;;;;;;2.92;1.70;;;;;;;;;;4861794;29;20430;-74
2021/05/30 05:20:49;;;;;;;3.13;1.70;;;;;;;;;;4878408;29;20041;-60
2021/05/30 05:23:16;;;;;;;7.03;1.73;;;;;;;;;;4878601;29;20029;-60
2021/05/30 05:25:42;;;;;;;5.35;2.20;;;;;;;;;;4878522;29;20587;-60
2021/05/30 05:28:08;;;;;;;4.65;2.13;;;;;;;;;;4878759;29;20064;-65
2021/05/30 05:30:35;;;;;;;4.18;1.85;;;;;;;;;;4877781;29;20068;-61
2021/05/30 05:33:01;;;;;;;4.10;1.98;;;;;;;;;;4877503;29;20048;-62
2021/05/30 05:35:27;;;;;;;4.72;1.80;;;;;;;;;;4878449;29;20077;-63
2021/05/30 05:37:54;;;;;;;3.60;1.75;;;;;;;;;;4877122;29;20025;-72
2021/05/30 05:40:21;;;;;;;2.47;1.80;;;;;;;;;;4877665;29;20425;-63
2021/05/30 05:42:47;;;;;;;4.80;1.90;;;;;;;;;;4877948;29;20061;-71
2021/05/30 05:45:13;;;;;;;4.43;2.03;;;;;;;;;;4877480;29;20025;-61
2021/05/30 05:47:42;;;;;;;2.92;1.80;;;;;;;;;;4877909;29;20036;-69
2021/05/30 05:50:09;;;;;;;3.28;1.85;;;;;;;;;;4877179;29;20028;-71
2021/05/30 05:52:35;;;;;;;3.88;1.83;;;;;;;;;;4877252;29;20473;-66
2021/05/30 05:55:01;;;;;;;4.80;1.75;;;;;;;;;;4877097;29;20440;-67
2021/05/30 05:57:27;;;;;;;3.47;2.05;;;;;;;;;;4877778;29;20120;-62
2021/05/30 05:59:53;;;;;;;2.80;1.92;;;;;;;;;;4874305;29;20084;-68
2021/05/30 06:02:19;;;;;;;3.28;2.30;;;;;;;;;;4877163;29;20037;-64
2021/05/30 06:04:45;;;;;;;4.35;1.90;;;;;;;;;;4873427;29;20037;-66
2021/05/30 06:07:11;;;;;;;3.45;1.88;;;;;;;;;;4869598;29;20107;-68
2021/05/30 06:09:37;;;;;;;3.50;2.00;;;;;;;;;;4877370;29;20029;-70
2021/05/30 06:12:04;;;;;;;3.47;2.05;;;;;;;;;;4876338;29;20545;-64
2021/05/30 06:14:30;;;;;;;2.80;1.95;;;;;;;;;;4876709;29;20474;-65
2021/05/30 06:16:57;;;;;;;3.05;1.60;;;;;;;;;;4877164;29;20035;-71
2021/05/30 06:19:25;;;;;;;4.75;1.90;;;;;;;;;;4877295;29;20041;-65
2021/05/30 06:21:51;;;;;;;4.75;2.40;;;;;;;;;;4877234;29;20032;-64
2021/05/30 06:24:17;;;;;;;4.38;2.00;;;;;;;;;;4877265;29;20040;-71
2021/05/30 06:26:43;;;;;;;4.35;1.60;;;;;;;;;;4876878;29;20393;-64
2021/05/30 06:29:09;;;;;;;9.60;1.98;;;;;;;;;;4876953;29;20136;-63
2021/05/30 06:31:36;;;;;;;6.25;1.65;;;;;;;;;;4879465;29;20029;-72
2021/05/30 06:34:02;;;;;;;2.95;1.90;;;;;;;;;;4876406;29;20040;-65
2021/05/30 06:36:28;;;;;;;4.75;1.98;;;;;;;;;;4868878;29;20485;-71
2021/05/30 06:38:54;;;;;;;6.22;2.10;;;;;;;;;;4877032;29;20037;-68
2021/05/30 06:41:20;;;;;;;4.13;1.83;;;;;;;;;;4876674;29;20053;-67
2021/05/30 06:43:50;;;;;;;4.93;1.83;;;;;;;;;;4877201;29;20065;-70
2021/05/30 06:46:16;;;;;;;5.20;1.98;;;;;;;;;;4875959;29;20036;-69
2021/05/30 06:48:42;;;;;;;3.17;1.90;;;;;;;;;;4875858;29;20040;-65
2021/05/30 06:51:12;;;;;;;7.47;1.98;;;;;;;;;;4874150;29;20025;-68
2021/05/30 06:53:38;;;;;;;4.82;3.05;;;;;;;;;;4876625;29;20032;-65
2021/05/30 06:56:04;;;;;;;7.13;2.97;;;;;;;;;;4875991;29;20041;-63
2021/05/30 06:58:30;;;;;;;14.30;3.17;;;;;;;;;;4876164;29;20040;-63
2021/05/30 07:00:56;;;;;;;8.75;2.45;;;;;;;;;;4876150;29;20048;-66
2021/05/30 07:03:22;;;;;;;7.18;2.47;;;;;;;;;;4876561;29;20033;-63
2021/05/30 07:05:48;;;;;;;35.88;4.07;;;;;;;;;;4876605;29;20117;-67
2021/05/30 07:08:14;;;;;;;4.93;2.25;;;;;;;;;;4876678;29;20029;-63
2021/05/30 07:10:40;;;;;;;8.80;2.88;;;;;;;;;;4877002;29;20486;-67
2021/05/30 07:13:06;;;;;;;5.07;2.72;;;;;;;;;;4877299;29;20540;-62
2021/05/30 07:15:32;;;;;;;4.03;2.35;;;;;;;;;;4877857;29;20397;-62
2021/05/30 07:17:58;;;;;;;5.93;3.72;;;;;;;;;;4880840;29;20394;-66
2021/05/30 07:20:25;;;;;;;5.43;3.53;;;;;;;;;;4880959;29;20111;-64
2021/05/30 07:22:51;;;;;;;7.95;2.53;;;;;;;;;;4879607;29;20501;-69
2021/05/30 07:25:17;;;;;;;4.57;2.63;;;;;;;;;;4879376;29;20128;-63
2021/05/30 07:27:43;;;;;;;5.43;2.55;;;;;;;;;;4880692;29;20093;-71
2021/05/30 07:30:10;;;;;;;6.22;3.72;;;;;;;;;;4880236;29;20033;-66
2021/05/30 07:32:36;;;;;;;9.88;4.97;;;;;;;;;;4863588;29;20045;-70
2021/05/30 07:35:02;;;;;;;12.18;2.83;;;;;;;;;;4879905;29;20101;-63
2021/05/30 07:37:28;;;;;;;3.60;2.50;;;;;;;;;;4869300;29;20494;-63
2021/05/30 07:39:54;;;;;;;4.05;2.75;;;;;;;;;;4873232;29;20112;-67
2021/05/30 07:42:20;;;;;;;7.15;4.53;;;;;;;;;;4879009;29;20047;-63
2021/05/30 07:44:46;;;;;;;13.68;4.05;;;;;;;;;;4880424;29;20033;-71
2021/05/30 07:47:12;;;;;;;13.10;4.20;;;;;;;;;;4880838;29;20097;-66
2021/05/30 07:49:38;;;;;;;7.97;3.40;;;;;;;;;;4880571;29;20064;-72
2021/05/30 07:52:04;;;;;;;5.80;3.38;;;;;;;;;;4880387;29;20493;-67
2021/05/30 07:54:31;;;;;;;5.07;3.08;;;;;;;;;;4863187;29;20409;-62
2021/05/30 07:56:57;;;;;;;7.13;3.20;;;;;;;;;;4880268;29;20468;-66
2021/05/30 07:59:23;;;;;;;5.57;3.47;;;;;;;;;;4880147;29;20509;-65
2021/05/30 08:01:49;;;;;;;6.10;3.45;;;;;;;;;;4880377;29;20116;-67
2021/05/30 08:04:15;;;;;;;6.35;3.20;;;;;;;;;;4879014;29;20041;-61
2021/05/30 08:06:41;;;;;;;6.45;3.50;;;;;;;;;;4879510;29;20445;-65
2021/05/30 08:09:07;;;;;;;5.07;3.35;;;;;;;;;;4879990;29;20041;-70
2021/05/30 08:11:33;;;;;;;5.25;3.40;;;;;;;;;;4879480;29;20040;-77
2021/05/30 08:13:59;;;;;;;12.40;4.57;;;;;;;;;;4878228;29;20064;-61
2021/05/30 08:16:25;;;;;;;8.13;4.43;;;;;;;;;;4880084;29;20029;-61
2021/05/30 08:18:51;;;;;;;6.55;4.13;;;;;;;;;;4880009;29;20041;-61
2021/05/30 08:21:18;;;;;;;7.05;3.83;;;;;;;;;;4880132;29;20200;-61
2021/05/30 08:23:47;;;;;;;5.53;3.03;;;;;;;;;;4879622;29;20154;-76
2021/05/30 08:26:13;;;;;;;4.20;3.25;;;;;;;;;;4879449;29;20076;-61
2021/05/30 08:28:39;;;;;;;4.53;3.50;;;;;;;;;;4878951;29;20079;-60
2021/05/30 08:31:05;;;;;;;5.60;2.90;;;;;;;;;;4879902;29;20025;-61
2021/05/30 08:33:31;;;;;;;4.72;2.95;;;;;;;;;;4879405;29;20405;-74
2021/05/30 08:35:57;;;;;;;7.90;2.80;;;;;;;;;;4879471;29;20074;-61
2021/05/30 08:38:24;;;;;;;5.22;3.10;;;;;;;;;;4879727;29;20025;-61
2021/05/30 08:40:51;;;;;;;5.90;3.30;;;;;;;;;;4879463;29;20121;-70
2021/05/30 08:43:17;;;;;;;5.95;3.35;;;;;;;;;;4879517;29;20029;-72
2021/05/30 08:45:44;;;;;;;5.60;3.50;;;;;;;;;;4879798;29;20036;-69
2021/05/30 08:48:10;;;;;;;8.73;3.42;;;;;;;;;;4879142;29;20120;-73
2021/05/30 08:50:37;;;;;;;5.93;4.03;;;;;;;;;;4879111;29;20116;-65
2021/05/30 08:53:04;;;;;;;4.55;3.25;;;;;;;;;;4879296;29;20529;-71
2021/05/30 08:55:30;;;;;;;5.47;3.38;;;;;;;;;;4879116;29;20069;-61
2021/05/30 08:57:57;;;;;;;6.63;3.17;;;;;;;;;;4878899;29;20099;-75
2021/05/30 09:00:26;;;;;;;7.25;3.35;;;;;;;;;;4862463;29;20048;-60
2021/05/30 09:03:10;;;;;;;5.45;3.10;;;;;;;;;;4878880;29;20017;-61
2021/05/30 09:05:37;;;;;;;5.18;3.70;;;;;;;;;;4878740;29;20029;-60
2021/05/30 09:08:03;;;;;;;4.70;3.28;;;;;;;;;;4878586;29;20486;-63
2021/05/30 09:10:29;;;;;;;5.45;3.10;;;;;;;;;;4878576;29;20029;-60
2021/05/30 09:13:14;;;;;;;6.45;3.53;;;;;;;;;;4861881;29;20033;-61
2021/05/30 09:18:17;;;;;;;8.13;3.60;;;;;;;;;;4863026;29;20385;-65
2021/05/30 09:20:57;;;;;;;5.78;2.65;;;;;;;;;;4878640;29;20035;-62
2021/05/30 09:23:36;;;;;;;5.32;2.97;;;;;;;;;;4878175;29;20033;-76
2021/05/30 09:26:07;;;;;;;5.18;3.17;;;;;;;;;;4878256;29;20057;-61
2021/05/30 09:28:33;;;;;;;4.65;2.80;;;;;;;;;;4878398;29;20047;-61
2021/05/30 09:31:02;;;;;;;4.07;3.05;;;;;;;;;;4878355;29;20095;-61
2021/05/30 09:33:32;;;;;;;4.93;2.97;;;;;;;;;;4877995;29;20393;-61
2021/05/30 09:36:01;;;;;;;3.65;2.70;;;;;;;;;;4878304;29;20037;-62
2021/05/30 09:38:29;;;;;;;3.97;2.75;;;;;;;;;;4877751;29;20039;-61
2021/05/30 09:40:57;;;;;;;4.85;2.70;;;;;;;;;;4877462;29;20041;-61
2021/05/30 09:43:35;;;;;;;6.72;3.90;;;;;;;;;;4878430;29;20385;-63
2021/05/30 09:46:03;;;;;;;7.70;4.47;;;;;;;;;;4878285;29;20033;-62
2021/05/30 09:48:29;;;;;;;8.27;3.95;;;;;;;;;;4877986;29;20146;-71
2021/05/30 09:53:32;;;;;;;10.75;4.80;;;;;;;;;;4877634;29;20111;-71
2021/05/30 09:55:58;;;;;;;10.32;5.53;;;;;;;;;;4878059;29;20048;-61
2021/05/30 09:58:24;;;;;;;3.58;2.40;;;;;;;;;;4878036;29;20032;-75
2021/05/30 10:00:53;;;;;;;5.45;3.75;;;;;;;;;;4878006;29;20061;-74
2021/05/30 10:03:19;;;;;;;6.15;3.53;;;;;;;;;;4877689;29;20076;-68
2021/05/30 10:05:46;;;;;;;5.00;3.00;;;;;;;;;;4877945;29;20092;-64
2021/05/30 10:08:13;;;;;;;3.97;2.38;;;;;;;;;;4877616;29;20037;-63
2021/05/30 10:10:39;;;;;;;4.72;2.25;;;;;;;;;;4877387;29;20056;-63
2021/05/30 10:13:06;;;;;;;3.58;2.85;;;;;;;;;;4877646;29;20032;-60
2021/05/30 10:15:32;;;;;;;4.18;2.75;;;;;;;;;;4877066;29;20124;-60
2021/05/30 10:18:01;;;;;;;6.97;4.43;;;;;;;;;;4877630;29;20538;-60
2021/05/30 10:20:28;;;;;;;3.35;2.25;;;;;;;;;;4877571;29;20389;-66
2021/05/30 10:22:55;;;;;;;5.20;2.13;;;;;;;;;;4877498;29;20382;-61
2021/05/30 10:25:25;;;;;;;4.47;2.20;;;;;;;;;;4877299;29;20053;-71
2021/05/30 10:28:07;;;;;;;2.67;1.70;;;;;;;;;;4877210;29;20036;-63
2021/05/30 10:30:33;;;;;;;4.63;2.42;;;;;;;;;;4877492;29;20033;-67
2021/05/30 10:33:12;;;;;;;3.17;2.42;;;;;;;;;;4876980;29;20029;-67
2021/05/30 10:35:38;;;;;;;4.03;2.47;;;;;;;;;;4877471;29;20037;-65
2021/05/30 10:38:04;;;;;;;3.67;2.33;;;;;;;;;;4877380;29;20036;-61
2021/05/30 10:40:35;;;;;;;3.05;1.88;;;;;;;;;;4877606;29;20100;-73
2021/05/30 10:43:10;;;;;;;4.32;1.83;;;;;;;;;;4877228;29;20017;-69
2021/05/30 10:45:37;;;;;;;5.07;2.40;;;;;;;;;;4877066;29;20033;-66
2021/05/30 10:48:03;;;;;;;3.75;2.10;;;;;;;;;;4876769;29;20037;-62
2021/05/30 10:50:47;;;;;;;3.28;1.70;;;;;;;;;;4877651;29;20084;-61
2021/05/30 10:53:32;;;;;;;4.38;1.90;;;;;;;;;;4881061;29;20028;-60
2021/05/30 10:56:19;;;;;;;3.50;1.92;;;;;;;;;;4880472;29;20052;-64
2021/05/30 10:59:05;;;;;;;3.70;2.35;;;;;;;;;;4881136;29;20025;-61
2021/05/30 11:01:34;;;;;;;4.40;2.72;;;;;;;;;;4881214;29;20025;-61
2021/05/30 11:04:19;;;;;;;2.67;1.52;;;;;;;;;;4880902;29;20022;-63
2021/05/30 11:06:49;;;;;;;2.15;1.42;;;;;;;;;;4880859;29;20120;-61
2021/05/30 11:09:15;;;;;;;4.35;1.73;;;;;;;;;;4880657;29;20036;-60
2021/05/30 11:11:41;;;;;;;2.03;1.38;;;;;;;;;;4880508;29;20366;-65
2021/05/30 11:14:11;;;;;;;2.25;1.48;;;;;;;;;;4880170;29;20025;-61
2021/05/30 11:16:46;;;;;;;2.03;1.48;;;;;;;;;;4880623;29;20037;-64
2021/05/30 11:19:17;;;;;;;2.10;1.60;;;;;;;;;;4880187;29;20442;-60
2021/05/30 11:21:44;;;;;;;2.53;1.60;;;;;;;;;;4880310;29;20127;-64
2021/05/30 11:24:20;;;;;;;2.78;1.70;;;;;;;;;;4880030;29;20021;-66
2021/05/30 11:26:55;;;;;;;3.40;1.70;;;;;;;;;;4879858;29;20516;-68
2021/05/30 11:29:22;;;;;;;2.90;1.85;;;;;;;;;;4880357;29;20029;-63
2021/05/30 11:31:48;;;;;;;3.25;1.40;;;;;;;;;;4879767;29;20033;-64
2021/05/30 11:34:14;;;;;;;2.47;1.60;;;;;;;;;;4880015;29;20125;-61
2021/05/30 11:36:40;;;;;;;2.83;1.58;;;;;;;;;;4880220;29;20044;-61
2021/05/30 11:39:13;;;;;;;4.82;1.95;;;;;;;;;;4880091;29;20061;-61
2021/05/30 11:41:51;;;;;;;4.65;1.50;;;;;;;;;;4880009;29;20178;-62
2021/05/30 11:44:18;;;;;;;2.88;1.63;;;;;;;;;;4880136;29;20033;-62
2021/05/30 11:46:44;;;;;;;2.17;1.23;;;;;;;;;;4876092;29;20029;-61
2021/05/30 11:49:12;;;;;;;2.35;1.45;;;;;;;;;;4876576;29;20044;-61
2021/05/30 11:51:50;;;;;;;3.00;1.27;;;;;;;;;;4880278;29;20056;-61
2021/05/30 11:54:17;;;;;;;3.65;1.90;;;;;;;;;;4879459;29;20048;-62
2021/05/30 11:56:44;;;;;;;2.55;1.50;;;;;;;;;;4880024;29;20025;-76
2021/05/30 11:59:10;;;;;;;3.17;1.63;;;;;;;;;;4880068;29;20497;-61
2021/05/30 12:01:49;;;;;;;3.15;1.40;;;;;;;;;;4879476;29;20033;-61
2021/05/30 12:04:19;;;;;;;4.18;2.67;;;;;;;;;;4879570;29;20040;-61
2021/05/30 12:06:46;;;;;;;8.32;5.30;;;;;;;;;;4879868;29;20037;-61
2021/05/30 12:09:13;;;;;;;2.95;1.38;;;;;;;;;;4879510;29;20028;-61
2021/05/30 12:11:40;;;;;;;3.30;2.17;;;;;;;;;;4879600;29;20077;-65
2021/05/30 12:14:06;;;;;;;3.05;1.60;;;;;;;;;;4879632;29;20064;-71
2021/05/30 12:16:32;;;;;;;3.50;1.48;;;;;;;;;;4879639;29;20116;-63
2021/05/30 12:18:59;;;;;;;3.58;1.67;;;;;;;;;;4879584;29;20036;-61
2021/05/30 12:21:26;;;;;;;2.30;1.17;;;;;;;;;;4879677;29;20389;-76
2021/05/30 12:23:53;;;;;;;3.50;1.55;;;;;;;;;;4879663;29;20041;-67
2021/05/30 12:26:19;;;;;;;3.05;1.52;;;;;;;;;;4878908;29;20104;-63
2021/05/30 12:28:45;;;;;;;2.53;1.30;;;;;;;;;;4879298;29;20029;-77
2021/05/30 12:31:11;;;;;;;4.32;1.30;;;;;;;;;;4879985;29;20029;-69
2021/05/30 12:33:53;;;;;;;2.40;1.48;;;;;;;;;;4879472;29;20070;-63
2021/05/30 12:36:36;;;;;;;4.35;1.65;;;;;;;;;;4879766;29;20092;-70
2021/05/30 12:39:15;;;;;;;7.18;1.58;;;;;;;;;;4879686;29;20036;-78
2021/05/30 12:41:46;;;;;;;2.78;1.27;;;;;;;;;;4879081;29;20041;-63
2021/05/30 12:44:15;;;;;;;2.40;1.35;;;;;;;;;;4879090;29;20100;-72
2021/05/30 12:47:05;;;;;;;2.15;1.23;;;;;;;;;;4879545;29;20040;-61
2021/05/30 12:49:31;;;;;;;4.22;1.17;;;;;;;;;;4879289;29;20496;-62
2021/05/30 12:51:57;;;;;;;3.10;1.30;;;;;;;;;;4879216;29;20033;-74
2021/05/30 12:54:24;;;;;;;4.65;1.38;;;;;;;;;;4879205;29;20072;-68
2021/05/30 12:56:51;;;;;;;1.33;0.80;;;;;;;;;;4879399;29;20033;-77
2021/05/30 12:59:18;;;;;;;3.33;1.25;;;;;;;;;;4879389;29;20025;-77
2021/05/30 13:01:46;;;;;;;2.58;1.20;;;;;;;;;;4878671;29;20025;-70
2021/05/30 13:04:18;;;;;;;3.63;1.63;;;;;;;;;;4875709;29;20493;-65
2021/05/30 13:06:53;;;;;;;2.10;1.20;;;;;;;;;;4875974;29;20042;-72
2021/05/30 13:09:20;;;;;;;3.17;1.40;;;;;;;;;;4876726;29;20069;-76
2021/05/30 13:11:46;;;;;;;2.30;1.55;;;;;;;;;;4876373;29;20059;-65
2021/05/30 13:14:26;;;;;;;2.10;1.55;;;;;;;;;;4876155;29;20033;-64
2021/05/30 13:16:52;;;;;;;31.25;23.38;;;;;;;;;;4876421;29;20033;-74
2021/05/30 13:19:18;;;;;;;6.25;5.07;;;;;;;;;;4876986;29;20033;-66
2021/05/30 13:21:44;;;;;;;3.30;1.30;;;;;;;;;;4859791;29;20037;-63
2021/05/30 13:24:14;;;;;;;4.35;2.90;;;;;;;;;;4875942;29;20036;-62
2021/05/30 13:27:06;;;;;;;4.43;2.17;;;;;;;;;;4875887;29;20036;-64
2021/05/30 13:29:33;;;;;;;4.72;3.10;;;;;;;;;;4872183;29;20064;-61
2021/05/30 13:31:59;;;;;;;5.07;2.05;;;;;;;;;;4876751;29;20200;-63
2021/05/30 13:34:25;;;;;;;1.83;1.10;;;;;;;;;;4876724;29;20040;-72
2021/05/30 13:36:54;;;;;;;2.75;1.40;;;;;;;;;;4876875;29;20025;-67
2021/05/30 13:39:20;;;;;;;2.30;1.30;;;;;;;;;;4876667;29;20074;-65
2021/05/30 13:41:46;;;;;;;3.15;1.10;;;;;;;;;;4876610;29;20040;-62
2021/05/30 13:44:13;;;;;;;1.42;0.90;;;;;;;;;;4876604;29;20033;-73
2021/05/30 13:46:39;;;;;;;1.00;0.80;;;;;;;;;;4876638;29;20024;-69
2021/05/30 13:49:05;;;;;;;1.88;0.93;;;;;;;;;;4876669;29;20033;-68
2021/05/30 13:51:32;;;;;;;2.33;1.30;;;;;;;;;;4874680;29;20493;-64
2021/05/30 13:54:05;;;;;;;2.08;1.08;;;;;;;;;;4875619;29;20041;-64
2021/05/30 13:56:31;;;;;;;1.63;1.17;;;;;;;;;;4877054;29;20108;-63
2021/05/30 13:58:57;;;;;;;3.25;1.25;;;;;;;;;;4877319;29;20108;-68
2021/05/30 14:01:25;;;;;;;1.63;1.00;;;;;;;;;;4877212;29;20029;-61
2021/05/30 14:03:51;;;;;;;1.67;0.93;;;;;;;;;;4877057;29;20029;-76
2021/05/30 14:06:18;;;;;;;2.83;1.60;;;;;;;;;;4877081;29;20052;-74
2021/05/30 14:08:44;;;;;;;1.75;0.95;;;;;;;;;;4877255;29;20493;-65
2021/05/30 14:11:11;;;;;;;3.25;1.55;;;;;;;;;;4877279;29;20036;-75
2021/05/30 14:13:38;;;;;;;3.85;1.77;;;;;;;;;;4877017;29;20028;-74
2021/05/30 14:16:04;;;;;;;2.03;1.20;;;;;;;;;;4877323;29;20033;-64
2021/05/30 14:18:30;;;;;;;3.38;1.15;;;;;;;;;;4877094;29;20044;-76
2021/05/30 14:20:56;;;;;;;2.20;1.00;;;;;;;;;;4877099;29;20497;-76
2021/05/30 14:23:23;;;;;;;5.40;1.35;;;;;;;;;;4876980;29;20464;-63
2021/05/30 14:25:49;;;;;;;1.73;1.13;;;;;;;;;;4876567;29;20093;-74
2021/05/30 14:28:15;;;;;;;3.33;1.30;;;;;;;;;;4876623;29;20474;-70
2021/05/30 14:30:41;;;;;;;2.92;1.30;;;;;;;;;;4876732;29;20044;-65
2021/05/30 14:33:07;;;;;;;2.22;1.40;;;;;;;;;;4877445;29;20025;-73
2021/05/30 14:35:33;;;;;;;2.38;1.15;;;;;;;;;;4874895;29;20049;-78
2021/05/30 14:37:59;;;;;;;2.33;1.00;;;;;;;;;;4875641;29;20032;-71
2021/05/30 14:40:25;;;;;;;4.35;1.67;;;;;;;;;;4877245;29;20081;-66
2021/05/30 14:42:52;;;;;;;2.47;1.35;;;;;;;;;;4877146;29;20080;-67
2021/05/30 14:45:19;;;;;;;1.67;0.80;;;;;;;;;;4877771;29;20374;-75
2021/05/30 14:47:45;;;;;;;2.03;1.20;;;;;;;;;;4877082;29;20048;-74
2021/05/30 14:50:11;;;;;;;1.80;1.00;;;;;;;;;;4877403;29;20047;-74